sensor_id;sensor_type;location;lat;lon;timestamp;P1;durP1;ratioP1;P2;durP2;ratioP2
4806;SDS011;2417;52.482;13.432;2023-05-14T00:01:43;119.77;;;54.53;;
4806;SDS011;2417;52.482;13.432;2023-05-14T00:04:11;77.40;;;31.73;;
4806;SDS011;2417;52.482;13.432;2023-05-14T00:06:39;61.60;;;20.03;;
4806;SDS011;2417;52.482;13.432;2023-05-14T00:09:07;97.03;;;39.03;;
4806;SDS011;2417;52.482;13.432;2023-05-14T00:11:35;64.63;;;21.00;;
4806;SDS011;2417;52.482;13.432;2023-05-14T00:14:03;86.27;;;31.87;;
4806;SDS011;2417;52.482;13.432;2023-05-14T00:16:32;53.43;;;16.67;;
4806;SDS011;2417;52.482;13.432;2023-05-14T00:19:02;58.10;;;18.20;;
4806;SDS011;2417;52.482;13.432;2023-05-14T00:21:32;47.40;;;12.80;;
4806;SDS011;2417;52.482;13.432;2023-05-14T00:24:00;44.30;;;11.33;;
4806;SDS011;2417;52.482;13.432;2023-05-14T00:26:28;47.73;;;12.20;;
4806;SDS011;2417;52.482;13.432;2023-05-14T00:28:56;43.53;;;10.77;;
4806;SDS011;2417;52.482;13.432;2023-05-14T00:31:24;40.97;;;10.40;;
4806;SDS011;2417;52.482;13.432;2023-05-14T00:33:53;38.87;;;10.00;;
4806;SDS011;2417;52.482;13.432;2023-05-14T00:36:22;41.20;;;11.30;;
4806;SDS011;2417;52.482;13.432;2023-05-14T00:38:50;44.60;;;11.07;;
4806;SDS011;2417;52.482;13.432;2023-05-14T00:41:18;46.47;;;13.40;;
4806;SDS011;2417;52.482;13.432;2023-05-14T00:43:46;49.23;;;13.20;;
4806;SDS011;2417;52.482;13.432;2023-05-14T00:46:14;42.40;;;10.90;;
4806;SDS011;2417;52.482;13.432;2023-05-14T00:48:43;45.60;;;13.10;;
4806;SDS011;2417;52.482;13.432;2023-05-14T00:51:11;42.93;;;9.83;;
4806;SDS011;2417;52.482;13.432;2023-05-14T00:53:40;40.43;;;10.83;;
4806;SDS011;2417;52.482;13.432;2023-05-14T00:56:08;40.80;;;10.10;;
4806;SDS011;2417;52.482;13.432;2023-05-14T00:58:36;41.70;;;10.77;;
4806;SDS011;2417;52.482;13.432;2023-05-14T01:01:04;42.73;;;10.90;;
4806;SDS011;2417;52.482;13.432;2023-05-14T01:03:32;39.90;;;10.60;;
4806;SDS011;2417;52.482;13.432;2023-05-14T01:06:03;41.00;;;10.57;;
4806;SDS011;2417;52.482;13.432;2023-05-14T01:08:35;43.47;;;10.20;;
4806;SDS011;2417;52.482;13.432;2023-05-14T01:11:10;40.30;;;10.00;;
4806;SDS011;2417;52.482;13.432;2023-05-14T01:13:42;42.37;;;10.23;;
4806;SDS011;2417;52.482;13.432;2023-05-14T01:16:11;41.77;;;10.73;;
4806;SDS011;2417;52.482;13.432;2023-05-14T01:18:40;48.57;;;12.17;;
4806;SDS011;2417;52.482;13.432;2023-05-14T01:21:26;41.73;;;11.93;;
4806;SDS011;2417;52.482;13.432;2023-05-14T01:23:59;46.73;;;10.40;;
4806;SDS011;2417;52.482;13.432;2023-05-14T01:26:27;39.60;;;10.57;;
4806;SDS011;2417;52.482;13.432;2023-05-14T01:29:19;42.53;;;11.80;;
4806;SDS011;2417;52.482;13.432;2023-05-14T01:32:10;58.80;;;11.67;;
4806;SDS011;2417;52.482;13.432;2023-05-14T01:35:01;43.40;;;11.03;;
4806;SDS011;2417;52.482;13.432;2023-05-14T01:37:31;47.80;;;12.17;;
4806;SDS011;2417;52.482;13.432;2023-05-14T01:39:59;43.33;;;10.80;;
4806;SDS011;2417;52.482;13.432;2023-05-14T01:42:27;42.10;;;11.37;;
4806;SDS011;2417;52.482;13.432;2023-05-14T01:44:55;43.33;;;10.93;;
4806;SDS011;2417;52.482;13.432;2023-05-14T01:47:23;43.80;;;11.03;;
4806;SDS011;2417;52.482;13.432;2023-05-14T01:49:52;44.50;;;11.23;;
4806;SDS011;2417;52.482;13.432;2023-05-14T01:52:19;42.57;;;11.37;;
4806;SDS011;2417;52.482;13.432;2023-05-14T01:54:49;46.30;;;11.70;;
4806;SDS011;2417;52.482;13.432;2023-05-14T01:57:17;46.63;;;11.20;;
4806;SDS011;2417;52.482;13.432;2023-05-14T01:59:45;39.23;;;9.97;;
4806;SDS011;2417;52.482;13.432;2023-05-14T02:02:13;41.10;;;9.60;;
4806;SDS011;2417;52.482;13.432;2023-05-14T02:04:41;45.23;;;10.37;;
4806;SDS011;2417;52.482;13.432;2023-05-14T02:07:09;40.90;;;9.47;;
4806;SDS011;2417;52.482;13.432;2023-05-14T02:09:37;39.90;;;10.17;;
4806;SDS011;2417;52.482;13.432;2023-05-14T02:12:07;39.47;;;9.67;;
4806;SDS011;2417;52.482;13.432;2023-05-14T02:14:36;37.53;;;9.10;;
4806;SDS011;2417;52.482;13.432;2023-05-14T02:17:04;38.90;;;8.73;;
4806;SDS011;2417;52.482;13.432;2023-05-14T02:19:33;41.93;;;9.67;;
4806;SDS011;2417;52.482;13.432;2023-05-14T02:22:01;39.70;;;9.00;;
4806;SDS011;2417;52.482;13.432;2023-05-14T02:24:29;41.43;;;9.50;;
4806;SDS011;2417;52.482;13.432;2023-05-14T02:26:57;39.50;;;9.07;;
4806;SDS011;2417;52.482;13.432;2023-05-14T02:29:28;38.83;;;9.37;;
4806;SDS011;2417;52.482;13.432;2023-05-14T02:31:55;39.23;;;9.67;;
4806;SDS011;2417;52.482;13.432;2023-05-14T02:34:24;45.27;;;9.60;;
4806;SDS011;2417;52.482;13.432;2023-05-14T02:36:52;42.93;;;9.27;;
4806;SDS011;2417;52.482;13.432;2023-05-14T02:39:20;38.73;;;9.00;;
4806;SDS011;2417;52.482;13.432;2023-05-14T02:41:48;41.23;;;8.90;;
4806;SDS011;2417;52.482;13.432;2023-05-14T02:44:16;39.00;;;9.20;;
4806;SDS011;2417;52.482;13.432;2023-05-14T02:46:45;43.80;;;9.70;;
4806;SDS011;2417;52.482;13.432;2023-05-14T02:49:13;40.97;;;9.37;;
4806;SDS011;2417;52.482;13.432;2023-05-14T02:51:42;38.83;;;8.67;;
4806;SDS011;2417;52.482;13.432;2023-05-14T02:54:10;41.63;;;9.33;;
4806;SDS011;2417;52.482;13.432;2023-05-14T02:56:38;37.20;;;8.10;;
4806;SDS011;2417;52.482;13.432;2023-05-14T02:59:06;38.87;;;8.90;;
4806;SDS011;2417;52.482;13.432;2023-05-14T03:01:34;37.70;;;9.03;;
4806;SDS011;2417;52.482;13.432;2023-05-14T03:04:04;38.27;;;8.97;;
4806;SDS011;2417;52.482;13.432;2023-05-14T03:06:33;38.60;;;8.53;;
4806;SDS011;2417;52.482;13.432;2023-05-14T03:09:01;37.10;;;8.80;;
4806;SDS011;2417;52.482;13.432;2023-05-14T03:11:29;37.67;;;8.63;;
4806;SDS011;2417;52.482;13.432;2023-05-14T03:13:57;41.03;;;10.00;;
4806;SDS011;2417;52.482;13.432;2023-05-14T03:16:25;38.87;;;9.33;;
4806;SDS011;2417;52.482;13.432;2023-05-14T03:18:53;43.00;;;9.60;;
4806;SDS011;2417;52.482;13.432;2023-05-14T03:21:23;40.17;;;9.77;;
4806;SDS011;2417;52.482;13.432;2023-05-14T03:23:51;43.43;;;8.73;;
4806;SDS011;2417;52.482;13.432;2023-05-14T03:26:19;38.27;;;9.10;;
4806;SDS011;2417;52.482;13.432;2023-05-14T03:28:51;43.27;;;9.40;;
4806;SDS011;2417;52.482;13.432;2023-05-14T03:31:20;40.27;;;9.03;;
4806;SDS011;2417;52.482;13.432;2023-05-14T03:33:48;37.00;;;8.93;;
4806;SDS011;2417;52.482;13.432;2023-05-14T03:36:17;39.83;;;9.50;;
4806;SDS011;2417;52.482;13.432;2023-05-14T03:38:47;46.77;;;9.70;;
4806;SDS011;2417;52.482;13.432;2023-05-14T03:41:16;37.67;;;9.07;;
4806;SDS011;2417;52.482;13.432;2023-05-14T03:43:45;39.30;;;8.67;;
4806;SDS011;2417;52.482;13.432;2023-05-14T03:46:13;45.37;;;8.90;;
4806;SDS011;2417;52.482;13.432;2023-05-14T03:48:41;39.57;;;8.90;;
4806;SDS011;2417;52.482;13.432;2023-05-14T03:51:10;50.73;;;8.43;;
4806;SDS011;2417;52.482;13.432;2023-05-14T03:53:38;37.70;;;9.13;;
4806;SDS011;2417;52.482;13.432;2023-05-14T03:56:08;36.83;;;8.90;;
4806;SDS011;2417;52.482;13.432;2023-05-14T03:58:36;38.30;;;9.17;;
4806;SDS011;2417;52.482;13.432;2023-05-14T04:01:04;37.60;;;9.40;;
4806;SDS011;2417;52.482;13.432;2023-05-14T04:03:34;37.73;;;8.90;;
4806;SDS011;2417;52.482;13.432;2023-05-14T04:06:03;39.70;;;9.20;;
4806;SDS011;2417;52.482;13.432;2023-05-14T04:08:31;36.90;;;9.10;;
4806;SDS011;2417;52.482;13.432;2023-05-14T04:10:59;38.20;;;9.70;;
4806;SDS011;2417;52.482;13.432;2023-05-14T04:13:28;37.57;;;8.97;;
4806;SDS011;2417;52.482;13.432;2023-05-14T04:15:56;40.00;;;9.60;;
4806;SDS011;2417;52.482;13.432;2023-05-14T04:18:24;38.27;;;9.33;;
4806;SDS011;2417;52.482;13.432;2023-05-14T04:20:53;39.10;;;9.63;;
4806;SDS011;2417;52.482;13.432;2023-05-14T04:23:21;38.87;;;9.60;;
4806;SDS011;2417;52.482;13.432;2023-05-14T04:25:49;37.70;;;9.03;;
4806;SDS011;2417;52.482;13.432;2023-05-14T04:28:17;42.83;;;9.67;;
4806;SDS011;2417;52.482;13.432;2023-05-14T04:30:46;41.60;;;9.67;;
4806;SDS011;2417;52.482;13.432;2023-05-14T04:33:14;39.27;;;8.80;;
4806;SDS011;2417;52.482;13.432;2023-05-14T04:35:42;39.70;;;8.70;;
4806;SDS011;2417;52.482;13.432;2023-05-14T04:38:10;42.83;;;10.27;;
4806;SDS011;2417;52.482;13.432;2023-05-14T04:40:39;40.50;;;9.87;;
4806;SDS011;2417;52.482;13.432;2023-05-14T04:43:08;39.37;;;10.07;;
4806;SDS011;2417;52.482;13.432;2023-05-14T04:45:36;40.63;;;9.80;;
4806;SDS011;2417;52.482;13.432;2023-05-14T04:48:05;40.37;;;9.90;;
4806;SDS011;2417;52.482;13.432;2023-05-14T04:50:34;41.77;;;10.13;;
4806;SDS011;2417;52.482;13.432;2023-05-14T04:53:01;38.30;;;10.10;;
4806;SDS011;2417;52.482;13.432;2023-05-14T04:55:29;39.73;;;9.77;;
4806;SDS011;2417;52.482;13.432;2023-05-14T04:57:57;46.80;;;9.90;;
4806;SDS011;2417;52.482;13.432;2023-05-14T05:00:25;41.80;;;9.40;;
4806;SDS011;2417;52.482;13.432;2023-05-14T05:02:53;41.73;;;9.50;;
4806;SDS011;2417;52.482;13.432;2023-05-14T05:05:23;39.47;;;9.20;;
4806;SDS011;2417;52.482;13.432;2023-05-14T05:07:51;41.57;;;8.97;;
4806;SDS011;2417;52.482;13.432;2023-05-14T05:10:18;37.40;;;7.97;;
4806;SDS011;2417;52.482;13.432;2023-05-14T05:12:47;39.07;;;8.87;;
4806;SDS011;2417;52.482;13.432;2023-05-14T05:15:16;41.93;;;9.67;;
4806;SDS011;2417;52.482;13.432;2023-05-14T05:17:44;37.60;;;9.23;;
4806;SDS011;2417;52.482;13.432;2023-05-14T05:20:12;40.00;;;9.47;;
4806;SDS011;2417;52.482;13.432;2023-05-14T05:22:41;43.30;;;9.37;;
4806;SDS011;2417;52.482;13.432;2023-05-14T05:25:10;39.60;;;9.60;;
4806;SDS011;2417;52.482;13.432;2023-05-14T05:27:38;41.97;;;9.80;;
4806;SDS011;2417;52.482;13.432;2023-05-14T05:30:06;39.20;;;9.20;;
4806;SDS011;2417;52.482;13.432;2023-05-14T05:32:34;39.20;;;9.50;;
4806;SDS011;2417;52.482;13.432;2023-05-14T05:35:03;41.73;;;9.77;;
4806;SDS011;2417;52.482;13.432;2023-05-14T05:37:30;38.57;;;9.10;;
4806;SDS011;2417;52.482;13.432;2023-05-14T05:40:00;39.77;;;9.10;;
4806;SDS011;2417;52.482;13.432;2023-05-14T05:42:27;41.23;;;9.50;;
4806;SDS011;2417;52.482;13.432;2023-05-14T05:44:55;42.30;;;10.73;;
4806;SDS011;2417;52.482;13.432;2023-05-14T05:47:23;42.40;;;9.57;;
4806;SDS011;2417;52.482;13.432;2023-05-14T05:49:51;38.80;;;9.33;;
4806;SDS011;2417;52.482;13.432;2023-05-14T05:52:19;39.33;;;10.20;;
4806;SDS011;2417;52.482;13.432;2023-05-14T05:54:47;41.33;;;9.80;;
4806;SDS011;2417;52.482;13.432;2023-05-14T05:57:16;50.80;;;9.50;;
4806;SDS011;2417;52.482;13.432;2023-05-14T05:59:43;39.17;;;9.20;;
4806;SDS011;2417;52.482;13.432;2023-05-14T06:02:11;39.67;;;8.67;;
4806;SDS011;2417;52.482;13.432;2023-05-14T06:04:39;43.63;;;9.03;;
4806;SDS011;2417;52.482;13.432;2023-05-14T06:07:07;43.40;;;9.30;;
4806;SDS011;2417;52.482;13.432;2023-05-14T06:09:35;42.27;;;9.23;;
4806;SDS011;2417;52.482;13.432;2023-05-14T06:12:03;39.83;;;9.93;;
4806;SDS011;2417;52.482;13.432;2023-05-14T06:14:33;42.70;;;9.10;;
4806;SDS011;2417;52.482;13.432;2023-05-14T06:17:01;36.00;;;8.40;;
4806;SDS011;2417;52.482;13.432;2023-05-14T06:19:29;46.67;;;8.03;;
4806;SDS011;2417;52.482;13.432;2023-05-14T06:21:57;38.00;;;8.70;;
4806;SDS011;2417;52.482;13.432;2023-05-14T06:24:25;39.43;;;9.63;;
4806;SDS011;2417;52.482;13.432;2023-05-14T06:26:53;39.40;;;8.60;;
4806;SDS011;2417;52.482;13.432;2023-05-14T06:29:21;41.50;;;9.03;;
4806;SDS011;2417;52.482;13.432;2023-05-14T06:31:51;37.07;;;8.20;;
4806;SDS011;2417;52.482;13.432;2023-05-14T06:34:20;45.00;;;9.27;;
4806;SDS011;2417;52.482;13.432;2023-05-14T06:36:49;43.63;;;8.60;;
4806;SDS011;2417;52.482;13.432;2023-05-14T06:39:17;39.80;;;8.70;;
4806;SDS011;2417;52.482;13.432;2023-05-14T06:41:45;39.50;;;8.33;;
4806;SDS011;2417;52.482;13.432;2023-05-14T06:44:13;40.10;;;8.50;;
4806;SDS011;2417;52.482;13.432;2023-05-14T06:46:41;36.20;;;9.33;;
4806;SDS011;2417;52.482;13.432;2023-05-14T06:49:10;39.10;;;8.20;;
4806;SDS011;2417;52.482;13.432;2023-05-14T06:51:38;36.93;;;8.30;;
4806;SDS011;2417;52.482;13.432;2023-05-14T06:54:07;38.23;;;7.70;;
4806;SDS011;2417;52.482;13.432;2023-05-14T06:56:35;34.53;;;7.97;;
4806;SDS011;2417;52.482;13.432;2023-05-14T06:59:03;36.03;;;8.20;;
4806;SDS011;2417;52.482;13.432;2023-05-14T07:01:31;36.47;;;8.40;;
4806;SDS011;2417;52.482;13.432;2023-05-14T07:03:59;36.77;;;7.63;;
4806;SDS011;2417;52.482;13.432;2023-05-14T07:06:28;41.10;;;8.37;;
4806;SDS011;2417;52.482;13.432;2023-05-14T07:08:57;35.80;;;7.77;;
4806;SDS011;2417;52.482;13.432;2023-05-14T07:11:24;37.40;;;7.13;;
4806;SDS011;2417;52.482;13.432;2023-05-14T07:13:53;36.37;;;7.90;;
4806;SDS011;2417;52.482;13.432;2023-05-14T07:16:21;34.50;;;8.40;;
4806;SDS011;2417;52.482;13.432;2023-05-14T07:18:50;35.20;;;8.33;;
4806;SDS011;2417;52.482;13.432;2023-05-14T07:21:18;37.37;;;7.80;;
4806;SDS011;2417;52.482;13.432;2023-05-14T07:23:47;35.03;;;7.03;;
4806;SDS011;2417;52.482;13.432;2023-05-14T07:26:15;44.13;;;7.83;;
4806;SDS011;2417;52.482;13.432;2023-05-14T07:28:43;39.60;;;7.37;;
4806;SDS011;2417;52.482;13.432;2023-05-14T07:31:11;39.80;;;7.90;;
4806;SDS011;2417;52.482;13.432;2023-05-14T07:33:39;35.53;;;6.80;;
4806;SDS011;2417;52.482;13.432;2023-05-14T07:36:07;40.83;;;7.23;;
4806;SDS011;2417;52.482;13.432;2023-05-14T07:38:35;31.53;;;6.67;;
4806;SDS011;2417;52.482;13.432;2023-05-14T07:41:04;32.97;;;6.27;;
4806;SDS011;2417;52.482;13.432;2023-05-14T07:43:33;32.33;;;6.07;;
4806;SDS011;2417;52.482;13.432;2023-05-14T07:46:01;31.30;;;6.33;;
4806;SDS011;2417;52.482;13.432;2023-05-14T07:48:29;40.43;;;6.87;;
4806;SDS011;2417;52.482;13.432;2023-05-14T07:50:56;34.10;;;5.63;;
4806;SDS011;2417;52.482;13.432;2023-05-14T07:53:24;30.10;;;5.90;;
4806;SDS011;2417;52.482;13.432;2023-05-14T07:55:52;31.40;;;5.57;;
4806;SDS011;2417;52.482;13.432;2023-05-14T07:58:21;34.50;;;6.03;;
4806;SDS011;2417;52.482;13.432;2023-05-14T08:00:50;30.70;;;6.00;;
4806;SDS011;2417;52.482;13.432;2023-05-14T08:03:18;31.27;;;5.80;;
4806;SDS011;2417;52.482;13.432;2023-05-14T08:05:46;29.50;;;5.93;;
4806;SDS011;2417;52.482;13.432;2023-05-14T08:08:14;28.00;;;5.43;;
4806;SDS011;2417;52.482;13.432;2023-05-14T08:10:43;34.50;;;5.60;;
4806;SDS011;2417;52.482;13.432;2023-05-14T08:13:11;34.53;;;6.40;;
4806;SDS011;2417;52.482;13.432;2023-05-14T08:15:40;28.47;;;5.30;;
4806;SDS011;2417;52.482;13.432;2023-05-14T08:18:08;28.57;;;4.93;;
4806;SDS011;2417;52.482;13.432;2023-05-14T08:20:36;28.90;;;5.40;;
4806;SDS011;2417;52.482;13.432;2023-05-14T08:23:04;28.73;;;5.30;;
4806;SDS011;2417;52.482;13.432;2023-05-14T08:25:32;34.20;;;5.00;;
4806;SDS011;2417;52.482;13.432;2023-05-14T08:28:00;30.87;;;5.50;;
4806;SDS011;2417;52.482;13.432;2023-05-14T08:30:28;33.07;;;5.50;;
4806;SDS011;2417;52.482;13.432;2023-05-14T08:32:58;32.83;;;5.40;;
4806;SDS011;2417;52.482;13.432;2023-05-14T08:35:26;27.60;;;4.93;;
4806;SDS011;2417;52.482;13.432;2023-05-14T08:37:54;30.90;;;5.40;;
4806;SDS011;2417;52.482;13.432;2023-05-14T08:40:22;28.20;;;5.53;;
4806;SDS011;2417;52.482;13.432;2023-05-14T08:42:50;32.93;;;5.27;;
4806;SDS011;2417;52.482;13.432;2023-05-14T08:45:19;27.30;;;5.13;;
4806;SDS011;2417;52.482;13.432;2023-05-14T08:47:48;27.70;;;5.10;;
4806;SDS011;2417;52.482;13.432;2023-05-14T08:50:18;29.07;;;5.40;;
4806;SDS011;2417;52.482;13.432;2023-05-14T08:52:49;27.70;;;5.70;;
4806;SDS011;2417;52.482;13.432;2023-05-14T08:55:17;29.40;;;4.90;;
4806;SDS011;2417;52.482;13.432;2023-05-14T08:57:45;27.93;;;5.17;;
4806;SDS011;2417;52.482;13.432;2023-05-14T09:00:14;28.40;;;5.50;;
4806;SDS011;2417;52.482;13.432;2023-05-14T09:02:42;29.17;;;5.03;;
4806;SDS011;2417;52.482;13.432;2023-05-14T09:05:11;26.73;;;4.37;;
4806;SDS011;2417;52.482;13.432;2023-05-14T09:07:40;28.77;;;4.77;;
4806;SDS011;2417;52.482;13.432;2023-05-14T09:10:08;28.50;;;5.07;;
4806;SDS011;2417;52.482;13.432;2023-05-14T09:12:37;25.97;;;4.80;;
4806;SDS011;2417;52.482;13.432;2023-05-14T09:15:05;26.03;;;3.90;;
4806;SDS011;2417;52.482;13.432;2023-05-14T09:17:33;26.30;;;4.67;;
4806;SDS011;2417;52.482;13.432;2023-05-14T09:20:01;24.67;;;3.80;;
4806;SDS011;2417;52.482;13.432;2023-05-14T09:22:30;25.23;;;4.50;;
4806;SDS011;2417;52.482;13.432;2023-05-14T09:25:03;29.20;;;5.50;;
4806;SDS011;2417;52.482;13.432;2023-05-14T09:27:32;26.60;;;4.67;;
4806;SDS011;2417;52.482;13.432;2023-05-14T09:30:07;26.17;;;4.07;;
4806;SDS011;2417;52.482;13.432;2023-05-14T09:32:36;32.03;;;9.83;;
4806;SDS011;2417;52.482;13.432;2023-05-14T09:35:13;25.40;;;4.37;;
4806;SDS011;2417;52.482;13.432;2023-05-14T09:37:44;25.00;;;4.33;;
4806;SDS011;2417;52.482;13.432;2023-05-14T09:40:14;26.77;;;4.57;;
4806;SDS011;2417;52.482;13.432;2023-05-14T09:42:41;26.83;;;4.50;;
4806;SDS011;2417;52.482;13.432;2023-05-14T09:45:10;30.23;;;4.50;;
4806;SDS011;2417;52.482;13.432;2023-05-14T09:47:38;27.97;;;5.57;;
4806;SDS011;2417;52.482;13.432;2023-05-14T09:50:06;26.33;;;5.10;;
4806;SDS011;2417;52.482;13.432;2023-05-14T09:52:34;27.90;;;4.80;;
4806;SDS011;2417;52.482;13.432;2023-05-14T09:55:02;30.07;;;4.27;;
4806;SDS011;2417;52.482;13.432;2023-05-14T09:57:33;28.13;;;4.77;;
4806;SDS011;2417;52.482;13.432;2023-05-14T10:00:01;26.20;;;4.80;;
4806;SDS011;2417;52.482;13.432;2023-05-14T10:02:34;26.17;;;4.47;;
4806;SDS011;2417;52.482;13.432;2023-05-14T10:05:04;29.50;;;4.87;;
4806;SDS011;2417;52.482;13.432;2023-05-14T10:07:34;29.07;;;5.17;;
4806;SDS011;2417;52.482;13.432;2023-05-14T10:10:05;34.43;;;4.50;;
4806;SDS011;2417;52.482;13.432;2023-05-14T10:12:35;27.57;;;5.47;;
4806;SDS011;2417;52.482;13.432;2023-05-14T10:15:07;29.80;;;5.17;;
4806;SDS011;2417;52.482;13.432;2023-05-14T10:17:36;29.60;;;4.77;;
4806;SDS011;2417;52.482;13.432;2023-05-14T10:20:06;31.30;;;4.73;;
4806;SDS011;2417;52.482;13.432;2023-05-14T10:22:35;29.07;;;5.33;;
4806;SDS011;2417;52.482;13.432;2023-05-14T10:25:04;31.20;;;5.30;;
4806;SDS011;2417;52.482;13.432;2023-05-14T10:27:32;37.63;;;5.30;;
4806;SDS011;2417;52.482;13.432;2023-05-14T10:30:04;29.10;;;5.43;;
4806;SDS011;2417;52.482;13.432;2023-05-14T10:32:32;30.00;;;5.03;;
4806;SDS011;2417;52.482;13.432;2023-05-14T10:35:13;29.33;;;4.70;;
4806;SDS011;2417;52.482;13.432;2023-05-14T10:37:42;30.37;;;4.93;;
4806;SDS011;2417;52.482;13.432;2023-05-14T10:40:10;27.80;;;4.93;;
4806;SDS011;2417;52.482;13.432;2023-05-14T10:42:38;30.97;;;5.83;;
4806;SDS011;2417;52.482;13.432;2023-05-14T10:45:10;28.07;;;5.10;;
4806;SDS011;2417;52.482;13.432;2023-05-14T10:47:40;28.73;;;5.27;;
4806;SDS011;2417;52.482;13.432;2023-05-14T10:50:11;31.33;;;5.33;;
4806;SDS011;2417;52.482;13.432;2023-05-14T10:52:39;32.40;;;6.23;;
4806;SDS011;2417;52.482;13.432;2023-05-14T10:55:11;29.23;;;5.20;;
4806;SDS011;2417;52.482;13.432;2023-05-14T10:57:41;28.77;;;5.10;;
4806;SDS011;2417;52.482;13.432;2023-05-14T11:00:11;29.93;;;6.10;;
4806;SDS011;2417;52.482;13.432;2023-05-14T11:02:40;27.00;;;5.10;;
4806;SDS011;2417;52.482;13.432;2023-05-14T11:05:08;30.67;;;5.70;;
4806;SDS011;2417;52.482;13.432;2023-05-14T11:07:39;28.73;;;4.80;;
4806;SDS011;2417;52.482;13.432;2023-05-14T11:10:08;31.23;;;6.20;;
4806;SDS011;2417;52.482;13.432;2023-05-14T11:12:37;30.23;;;5.50;;
4806;SDS011;2417;52.482;13.432;2023-05-14T11:15:06;41.10;;;5.50;;
4806;SDS011;2417;52.482;13.432;2023-05-14T11:17:37;27.47;;;5.00;;
4806;SDS011;2417;52.482;13.432;2023-05-14T11:20:05;32.57;;;5.43;;
4806;SDS011;2417;52.482;13.432;2023-05-14T11:22:33;28.43;;;5.40;;
4806;SDS011;2417;52.482;13.432;2023-05-14T11:25:01;29.20;;;5.20;;
4806;SDS011;2417;52.482;13.432;2023-05-14T11:27:32;29.73;;;5.70;;
4806;SDS011;2417;52.482;13.432;2023-05-14T11:30:00;35.30;;;6.97;;
4806;SDS011;2417;52.482;13.432;2023-05-14T11:32:31;32.80;;;6.40;;
4806;SDS011;2417;52.482;13.432;2023-05-14T11:35:00;33.20;;;5.47;;
4806;SDS011;2417;52.482;13.432;2023-05-14T11:37:51;29.50;;;5.53;;
4806;SDS011;2417;52.482;13.432;2023-05-14T11:40:19;28.93;;;5.37;;
4806;SDS011;2417;52.482;13.432;2023-05-14T11:42:48;32.37;;;6.30;;
4806;SDS011;2417;52.482;13.432;2023-05-14T11:45:23;28.53;;;5.67;;
4806;SDS011;2417;52.482;13.432;2023-05-14T11:47:51;36.03;;;5.80;;
4806;SDS011;2417;52.482;13.432;2023-05-14T11:50:21;32.07;;;7.00;;
4806;SDS011;2417;52.482;13.432;2023-05-14T11:52:50;31.30;;;6.73;;
4806;SDS011;2417;52.482;13.432;2023-05-14T11:55:22;31.70;;;5.67;;
4806;SDS011;2417;52.482;13.432;2023-05-14T11:57:50;34.70;;;6.07;;
4806;SDS011;2417;52.482;13.432;2023-05-14T12:00:19;32.17;;;7.60;;
4806;SDS011;2417;52.482;13.432;2023-05-14T12:02:49;31.27;;;7.00;;
4806;SDS011;2417;52.482;13.432;2023-05-14T12:05:18;30.30;;;7.30;;
4806;SDS011;2417;52.482;13.432;2023-05-14T12:07:47;33.30;;;8.30;;
4806;SDS011;2417;52.482;13.432;2023-05-14T12:10:15;31.40;;;7.27;;
4806;SDS011;2417;52.482;13.432;2023-05-14T12:12:44;28.27;;;5.20;;
4806;SDS011;2417;52.482;13.432;2023-05-14T12:15:13;29.60;;;5.57;;
4806;SDS011;2417;52.482;13.432;2023-05-14T12:17:42;28.00;;;5.40;;
4806;SDS011;2417;52.482;13.432;2023-05-14T12:20:10;39.80;;;5.93;;
4806;SDS011;2417;52.482;13.432;2023-05-14T12:22:39;28.17;;;6.43;;
4806;SDS011;2417;52.482;13.432;2023-05-14T12:25:10;28.33;;;6.03;;
4806;SDS011;2417;52.482;13.432;2023-05-14T12:27:39;30.10;;;5.93;;
4806;SDS011;2417;52.482;13.432;2023-05-14T12:30:08;27.33;;;5.37;;
4806;SDS011;2417;52.482;13.432;2023-05-14T12:32:47;29.60;;;5.23;;
4806;SDS011;2417;52.482;13.432;2023-05-14T12:35:17;28.70;;;5.30;;
4806;SDS011;2417;52.482;13.432;2023-05-14T12:37:45;39.57;;;13.33;;
4806;SDS011;2417;52.482;13.432;2023-05-14T12:40:15;31.60;;;5.10;;
4806;SDS011;2417;52.482;13.432;2023-05-14T12:42:43;31.27;;;5.80;;
4806;SDS011;2417;52.482;13.432;2023-05-14T12:45:11;29.77;;;5.50;;
4806;SDS011;2417;52.482;13.432;2023-05-14T12:47:39;34.20;;;5.30;;
4806;SDS011;2417;52.482;13.432;2023-05-14T12:50:07;26.37;;;5.13;;
4806;SDS011;2417;52.482;13.432;2023-05-14T12:52:35;30.57;;;5.90;;
4806;SDS011;2417;52.482;13.432;2023-05-14T12:55:05;28.30;;;5.90;;
4806;SDS011;2417;52.482;13.432;2023-05-14T12:57:35;32.53;;;6.00;;
4806;SDS011;2417;52.482;13.432;2023-05-14T13:00:04;27.73;;;4.90;;
4806;SDS011;2417;52.482;13.432;2023-05-14T13:02:33;27.97;;;5.40;;
4806;SDS011;2417;52.482;13.432;2023-05-14T13:05:09;28.50;;;5.20;;
4806;SDS011;2417;52.482;13.432;2023-05-14T13:07:37;28.70;;;5.80;;
4806;SDS011;2417;52.482;13.432;2023-05-14T13:10:05;26.47;;;4.70;;
4806;SDS011;2417;52.482;13.432;2023-05-14T13:12:34;27.67;;;4.70;;
4806;SDS011;2417;52.482;13.432;2023-05-14T13:15:03;32.93;;;5.50;;
4806;SDS011;2417;52.482;13.432;2023-05-14T13:17:31;30.20;;;4.80;;
4806;SDS011;2417;52.482;13.432;2023-05-14T13:19:59;31.50;;;4.70;;
4806;SDS011;2417;52.482;13.432;2023-05-14T13:22:28;28.30;;;4.90;;
4806;SDS011;2417;52.482;13.432;2023-05-14T13:24:56;27.20;;;4.70;;
4806;SDS011;2417;52.482;13.432;2023-05-14T13:27:24;43.93;;;7.57;;
4806;SDS011;2417;52.482;13.432;2023-05-14T13:29:53;31.83;;;5.60;;
4806;SDS011;2417;52.482;13.432;2023-05-14T13:32:22;29.77;;;5.00;;
4806;SDS011;2417;52.482;13.432;2023-05-14T13:34:50;37.13;;;5.50;;
4806;SDS011;2417;52.482;13.432;2023-05-14T13:37:18;29.10;;;6.37;;
4806;SDS011;2417;52.482;13.432;2023-05-14T13:39:46;29.43;;;5.60;;
4806;SDS011;2417;52.482;13.432;2023-05-14T13:42:17;27.10;;;5.20;;
4806;SDS011;2417;52.482;13.432;2023-05-14T13:44:45;30.90;;;6.80;;
4806;SDS011;2417;52.482;13.432;2023-05-14T13:47:14;34.20;;;6.90;;
4806;SDS011;2417;52.482;13.432;2023-05-14T13:49:43;29.03;;;5.60;;
4806;SDS011;2417;52.482;13.432;2023-05-14T13:52:11;30.03;;;5.20;;
4806;SDS011;2417;52.482;13.432;2023-05-14T13:54:39;28.00;;;5.77;;
4806;SDS011;2417;52.482;13.432;2023-05-14T13:57:07;29.40;;;5.90;;
4806;SDS011;2417;52.482;13.432;2023-05-14T13:59:35;30.10;;;5.87;;
4806;SDS011;2417;52.482;13.432;2023-05-14T14:02:03;26.33;;;5.00;;
4806;SDS011;2417;52.482;13.432;2023-05-14T14:04:33;30.03;;;6.60;;
4806;SDS011;2417;52.482;13.432;2023-05-14T14:07:01;27.20;;;4.73;;
4806;SDS011;2417;52.482;13.432;2023-05-14T14:09:29;28.07;;;5.47;;
4806;SDS011;2417;52.482;13.432;2023-05-14T14:12:00;31.20;;;5.37;;
4806;SDS011;2417;52.482;13.432;2023-05-14T14:14:29;28.60;;;5.37;;
4806;SDS011;2417;52.482;13.432;2023-05-14T14:16:57;28.93;;;5.50;;
4806;SDS011;2417;52.482;13.432;2023-05-14T14:19:25;26.70;;;4.80;;
4806;SDS011;2417;52.482;13.432;2023-05-14T14:21:54;27.80;;;4.83;;
4806;SDS011;2417;52.482;13.432;2023-05-14T14:24:22;29.90;;;5.87;;
4806;SDS011;2417;52.482;13.432;2023-05-14T14:26:50;29.10;;;5.20;;
4806;SDS011;2417;52.482;13.432;2023-05-14T14:29:18;29.20;;;6.40;;
4806;SDS011;2417;52.482;13.432;2023-05-14T14:31:47;28.93;;;4.90;;
4806;SDS011;2417;52.482;13.432;2023-05-14T14:34:15;27.10;;;5.47;;
4806;SDS011;2417;52.482;13.432;2023-05-14T14:36:43;29.90;;;5.03;;
4806;SDS011;2417;52.482;13.432;2023-05-14T14:39:12;30.17;;;5.90;;
4806;SDS011;2417;52.482;13.432;2023-05-14T14:41:40;26.13;;;4.10;;
4806;SDS011;2417;52.482;13.432;2023-05-14T14:44:08;27.17;;;4.97;;
4806;SDS011;2417;52.482;13.432;2023-05-14T14:46:36;30.20;;;4.83;;
4806;SDS011;2417;52.482;13.432;2023-05-14T14:49:04;29.90;;;5.30;;
4806;SDS011;2417;52.482;13.432;2023-05-14T14:51:32;28.90;;;4.70;;
4806;SDS011;2417;52.482;13.432;2023-05-14T14:54:00;37.37;;;5.80;;
4806;SDS011;2417;52.482;13.432;2023-05-14T14:56:32;27.13;;;4.73;;